Time;durP1;ratioP1;P1;durP2;ratioP2;P2;SDS_P1;SDS_P2;PMS_P1;PMS_P2;Temp;Humidity;BMP_temperature;BMP_pressure;BME280_temperature;BME280_humidity;BME280_pressure;Samples;Min_cycle;Max_cycle;Signal;HPM_P1;HPM_P2
2021/12/29 00:00:27;;;;;;;254.07;175.32;;;;;;;24.93;41.05;100705.94;5022842;28;20434;-44
2021/12/29 00:03:00;;;;;;;249.45;177.65;;;;;;;24.92;41.07;100712.06;5023086;28;20092;-44
2021/12/29 00:05:29;;;;;;;246.30;172.43;;;;;;;24.94;40.92;100725.16;5023607;28;20439;-44
2021/12/29 00:07:58;;;;;;;249.50;174.73;;;;;;;24.85;41.16;100715.50;5023460;28;20045;-45
2021/12/29 00:10:27;;;;;;;248.98;177.13;;;;;;;24.81;41.05;100712.00;5023459;28;20537;-44
2021/12/29 00:12:56;;;;;;;254.00;177.00;;;;;;;24.87;41.22;100716.38;5023142;28;20044;-44
2021/12/29 00:15:27;;;;;;;255.20;177.23;;;;;;;24.74;41.38;100718.06;5023105;28;20029;-44
2021/12/29 00:17:58;;;;;;;253.57;179.18;;;;;;;24.86;41.27;100714.63;5023058;28;20522;-44
2021/12/29 00:20:29;;;;;;;259.85;178.93;;;;;;;24.84;41.13;100695.38;5009904;28;20034;-45
2021/12/29 00:23:00;;;;;;;254.80;176.85;;;;;;;24.83;41.40;100691.91;5003532;28;20029;-43
2021/12/29 00:25:29;;;;;;;254.93;180.15;;;;;;;24.84;41.40;100701.53;5003497;28;20030;-44
2021/12/29 00:27:59;;;;;;;244.60;172.48;;;;;;;24.85;41.34;100694.50;5003297;28;20554;-43
2021/12/29 00:30:28;;;;;;;241.75;170.90;;;;;;;24.91;41.01;100701.53;5003771;28;20026;-44
2021/12/29 00:33:01;;;;;;;245.48;176.68;;;;;;;24.80;41.41;100699.75;5003504;28;20053;-44
2021/12/29 00:35:30;;;;;;;252.73;180.23;;;;;;;24.85;41.37;100700.66;5011485;28;20037;-44
2021/12/29 00:37:59;;;;;;;254.57;178.48;;;;;;;24.83;41.09;100704.13;5023171;28;20029;-44
2021/12/29 00:40:28;;;;;;;252.85;178.00;;;;;;;24.86;41.11;100697.16;5023195;28;20095;-44
2021/12/29 00:42:56;;;;;;;260.15;184.25;;;;;;;24.87;41.37;100687.53;5023031;28;20033;-43
2021/12/29 00:45:32;;;;;;;240.60;173.45;;;;;;;24.87;41.36;100698.91;5022849;28;20394;-44
2021/12/29 00:48:01;;;;;;;256.92;178.85;;;;;;;24.82;41.22;100700.63;5024070;28;20029;-44
2021/12/29 00:50:29;;;;;;;262.50;180.50;;;;;;;24.84;41.27;100704.16;5026168;28;20517;-44
2021/12/29 00:52:58;;;;;;;260.38;185.27;;;;;;;24.81;41.54;100709.38;5026645;28;20446;-43
2021/12/29 00:55:27;;;;;;;249.52;178.82;;;;;;;24.77;41.50;100699.72;5026147;28;20091;-44
2021/12/29 00:57:56;;;;;;;255.82;180.52;;;;;;;24.84;41.23;100690.13;5026089;28;20059;-43
2021/12/29 01:00:25;;;;;;;256.02;182.18;;;;;;;24.87;41.05;100680.56;5025807;28;20053;-43
2021/12/29 01:02:54;;;;;;;255.15;181.43;;;;;;;24.79;41.71;100684.00;5026018;28;20037;-43
2021/12/29 01:05:25;;;;;;;248.88;177.07;;;;;;;24.75;41.50;100690.09;5026261;28;20038;-44
2021/12/29 01:07:54;;;;;;;259.75;185.15;;;;;;;24.72;41.47;100690.97;5026203;28;20048;-44
2021/12/29 01:10:23;;;;;;;259.30;178.68;;;;;;;24.77;41.36;100672.63;5025993;28;20025;-44
2021/12/29 01:12:56;;;;;;;255.95;180.73;;;;;;;24.84;41.34;100679.63;5023669;28;20383;-43
2021/12/29 01:15:32;;;;;;;256.17;183.45;;;;;;;24.76;41.25;100669.09;5006224;28;20084;-43
2021/12/29 01:18:08;;;;;;;263.48;191.68;;;;;;;24.82;41.27;100669.16;5006391;28;20033;-43
2021/12/29 01:20:37;;;;;;;254.23;182.07;;;;;;;24.84;41.24;100666.53;5006341;28;20044;-44
2021/12/29 01:23:05;;;;;;;267.40;188.15;;;;;;;24.85;41.11;100674.41;5005932;28;20091;-43
2021/12/29 01:25:33;;;;;;;266.75;183.82;;;;;;;24.72;41.75;100673.47;5005915;28;20782;-43
2021/12/29 01:28:02;;;;;;;272.83;188.73;;;;;;;24.68;41.96;100661.16;4988428;28;20030;-44
2021/12/29 01:30:30;;;;;;;256.13;181.57;;;;;;;24.81;41.42;100670.03;5006109;28;20942;-44
2021/12/29 01:33:05;;;;;;;253.55;183.15;;;;;;;24.69;41.54;100662.06;5006314;28;20087;-44
2021/12/29 01:35:34;;;;;;;252.52;178.77;;;;;;;24.77;41.25;100676.09;5004726;28;20045;-44
2021/12/29 01:38:04;;;;;;;253.75;184.27;;;;;;;24.78;41.56;100674.38;5004458;28;20506;-44
2021/12/29 01:40:33;;;;;;;246.82;177.82;;;;;;;24.79;41.18;100660.41;5005968;28;20091;-43
2021/12/29 01:43:02;;;;;;;240.75;175.48;;;;;;;24.73;41.59;100669.97;5005482;28;20034;-43
2021/12/29 01:45:30;;;;;;;272.23;189.18;;;;;;;24.78;41.46;100658.63;5006194;28;20029;-43
2021/12/29 01:48:01;;;;;;;249.07;176.75;;;;;;;24.73;41.47;100671.75;5005876;28;20056;-42
2021/12/29 01:50:31;;;;;;;238.52;173.18;;;;;;;24.76;41.35;100663.00;5005777;28;20034;-43
2021/12/29 01:53:08;;;;;;;239.27;170.20;;;;;;;24.75;41.22;100661.25;5005566;28;20045;-43
2021/12/29 01:55:39;;;;;;;244.45;175.40;;;;;;;24.68;41.65;100661.16;5005767;28;20030;-43
2021/12/29 01:58:08;;;;;;;243.50;174.77;;;;;;;24.72;41.37;100656.88;5004540;28;20026;-43
2021/12/29 02:00:38;;;;;;;252.45;174.82;;;;;;;24.71;41.27;100650.72;5004412;28;20058;-43
2021/12/29 02:03:08;;;;;;;250.40;174.05;;;;;;;24.74;41.59;100662.97;5006110;28;20021;-44
2021/12/29 02:05:39;;;;;;;246.40;178.65;;;;;;;24.70;41.46;100658.59;5005017;28;20040;-43
2021/12/29 02:08:10;;;;;;;232.35;170.55;;;;;;;24.70;41.65;100659.47;5005376;28;20042;-43
2021/12/29 02:10:44;;;;;;;245.90;175.30;;;;;;;24.76;41.31;100661.25;5004357;28;20038;-43
2021/12/29 02:13:13;;;;;;;247.45;172.30;;;;;;;24.66;41.82;100659.41;5005353;28;20041;-44
2021/12/29 02:15:42;;;;;;;224.73;159.20;;;;;;;24.71;41.63;100652.50;5005086;28;20034;-43
2021/12/29 02:18:16;;;;;;;240.05;166.50;;;;;;;24.62;41.65;100653.28;5004918;28;20065;-43
2021/12/29 02:20:48;;;;;;;227.13;159.30;;;;;;;24.66;41.36;100652.41;5005042;28;20060;-43
2021/12/29 02:23:20;;;;;;;235.50;168.77;;;;;;;24.60;41.85;100651.50;5005538;28;20029;-44
2021/12/29 02:25:54;;;;;;;228.35;159.35;;;;;;;24.53;41.99;100651.50;5005336;28;20033;-44
2021/12/29 02:28:34;;;;;;;218.48;152.25;;;;;;;24.70;41.33;100654.22;5004548;28;20037;-44
2021/12/29 02:31:04;;;;;;;236.40;166.65;;;;;;;24.70;41.53;100662.09;5004739;28;20029;-43
2021/12/29 02:33:34;;;;;;;229.63;158.68;;;;;;;24.63;41.44;100672.50;5004910;28;20600;-43
2021/12/29 02:36:03;;;;;;;231.68;166.65;;;;;;;24.69;41.59;100649.81;5004781;28;20510;-44
2021/12/29 02:38:35;;;;;;;222.25;158.32;;;;;;;24.60;41.75;100662.88;5004350;28;20091;-43
2021/12/29 02:41:07;;;;;;;245.82;172.27;;;;;;;24.65;41.39;100671.66;5004688;28;20399;-44
2021/12/29 02:43:38;;;;;;;253.10;169.25;;;;;;;24.61;41.67;100679.47;5004836;28;20440;-43
2021/12/29 02:46:11;;;;;;;241.48;171.00;;;;;;;24.67;41.75;100682.16;5019177;28;20033;-44
2021/12/29 02:48:45;;;;;;;226.05;158.63;;;;;;;24.70;41.59;100680.44;5024098;28;20091;-44
2021/12/29 02:51:14;;;;;;;237.70;163.73;;;;;;;24.69;41.37;100678.66;5024129;28;20037;-43
2021/12/29 02:53:43;;;;;;;221.90;160.15;;;;;;;24.65;41.84;100687.41;5024152;28;20091;-43
2021/12/29 02:56:11;;;;;;;229.45;159.68;;;;;;;24.63;41.42;100680.38;5023962;28;20141;-43
2021/12/29 02:58:40;;;;;;;234.43;157.13;;;;;;;24.65;41.41;100674.28;5008857;28;20479;-43
2021/12/29 03:01:11;;;;;;;227.43;162.25;;;;;;;24.64;41.71;100677.78;5004089;28;20057;-44
2021/12/29 03:03:42;;;;;;;225.98;167.07;;;;;;;24.64;41.83;100669.91;5004601;28;20080;-44
2021/12/29 03:06:12;;;;;;;237.90;163.23;;;;;;;24.58;41.58;100656.75;5004309;28;20099;-44
2021/12/29 03:08:41;;;;;;;228.30;163.40;;;;;;;24.62;41.67;100663.78;5004321;28;20402;-43
2021/12/29 03:11:11;;;;;;;226.18;160.45;;;;;;;24.64;41.48;100658.53;5002404;28;20121;-44
2021/12/29 03:13:40;;;;;;;229.43;160.57;;;;;;;24.57;41.77;100661.09;5004252;28;20025;-43
2021/12/29 03:16:11;;;;;;;227.95;156.50;;;;;;;24.63;41.32;100664.63;5004673;28;20041;-43
2021/12/29 03:18:40;;;;;;;224.45;157.45;;;;;;;24.62;41.84;100649.78;5004166;28;20141;-43
2021/12/29 03:21:08;;;;;;;222.90;158.25;;;;;;;24.60;41.50;100656.75;5004024;28;20131;-43
2021/12/29 03:23:38;;;;;;;233.82;157.07;;;;;;;24.55;41.69;100652.38;5004264;28;20033;-43
2021/12/29 03:26:07;;;;;;;232.02;156.63;;;;;;;24.47;42.02;100645.34;5004141;28;20036;-44
2021/12/29 03:28:37;;;;;;;208.75;150.80;;;;;;;24.56;41.66;100662.00;5004419;28;20395;-45
2021/12/29 03:31:10;;;;;;;225.75;153.30;;;;;;;24.56;41.99;100655.88;5002700;28;20022;-44
2021/12/29 03:33:45;;;;;;;225.90;151.02;;;;;;;24.59;41.92;100663.75;5004084;28;20033;-44
2021/12/29 03:36:19;;;;;;;223.02;153.50;;;;;;;24.52;42.06;100661.94;5003596;28;20026;-43
2021/12/29 03:38:49;;;;;;;222.63;153.30;;;;;;;24.50;42.03;100664.56;5003939;28;20026;-44
2021/12/29 03:41:19;;;;;;;209.07;148.95;;;;;;;24.50;41.82;100672.44;5004206;28;20037;-43
2021/12/29 03:43:49;;;;;;;221.85;154.60;;;;;;;24.52;41.83;100673.34;5003967;28;20029;-44
2021/12/29 03:46:24;;;;;;;229.85;155.48;;;;;;;24.48;41.78;100668.94;5004179;28;20030;-43
2021/12/29 03:48:53;;;;;;;226.85;159.63;;;;;;;24.52;41.96;100675.06;5003677;28;20026;-44
2021/12/29 03:51:21;;;;;;;220.27;153.45;;;;;;;24.54;41.73;100668.97;5003676;28;20111;-44
2021/12/29 03:53:52;;;;;;;226.43;155.50;;;;;;;24.49;41.90;100685.56;5004058;28;20037;-43
2021/12/29 03:56:21;;;;;;;215.15;153.85;;;;;;;24.54;41.79;100670.72;5022386;28;20083;-43
2021/12/29 03:58:49;;;;;;;223.98;150.57;;;;;;;24.50;41.90;100668.94;5023171;28;20390;-43
2021/12/29 04:01:25;;;;;;;229.20;155.55;;;;;;;24.50;42.19;100666.31;5023180;28;20054;-44
2021/12/29 04:03:57;;;;;;;234.70;158.93;;;;;;;24.51;42.01;100670.69;5005112;28;20029;-44
2021/12/29 04:06:26;;;;;;;221.20;151.70;;;;;;;24.47;42.18;100682.03;5002605;28;20033;-44
2021/12/29 04:08:54;;;;;;;226.48;159.88;;;;;;;24.50;41.83;100688.19;5003958;28;20026;-43
2021/12/29 04:11:26;;;;;;;222.48;159.30;;;;;;;24.48;42.16;100683.81;5003367;28;20026;-43
2021/12/29 04:13:54;;;;;;;221.70;152.23;;;;;;;24.47;42.17;100690.78;5003855;28;20040;-43
2021/12/29 04:16:27;;;;;;;224.25;150.35;;;;;;;24.44;42.18;100688.13;5003545;28;20094;-43
2021/12/29 04:21:47;;;;;;;226.07;158.95;;;;;;;24.40;42.21;100700.34;4995739;28;20034;-43
2021/12/29 04:24:18;;;;;;;222.80;157.43;;;;;;;24.43;41.95;100696.84;5006622;28;20033;-43
2021/12/29 04:26:49;;;;;;;220.23;154.27;;;;;;;24.50;41.90;100692.53;5005898;28;20037;-43
2021/12/29 04:29:19;;;;;;;227.85;155.82;;;;;;;24.46;42.19;100712.63;5007110;28;20406;-43
2021/12/29 04:31:50;;;;;;;216.05;148.10;;;;;;;24.42;42.07;100702.97;5005691;28;20062;-44
2021/12/29 04:34:21;;;;;;;227.35;153.20;;;;;;;24.43;42.41;100716.09;5006878;28;20125;-44
2021/12/29 04:36:49;;;;;;;221.27;148.57;;;;;;;24.39;42.13;100722.19;5006388;28;20233;-44
2021/12/29 04:39:18;;;;;;;215.48;146.45;;;;;;;24.45;42.24;100725.72;5006771;28;20026;-43
2021/12/29 04:41:51;;;;;;;233.48;156.38;;;;;;;24.38;42.04;100724.81;5007036;28;20041;-43
2021/12/29 04:44:20;;;;;;;230.23;151.88;;;;;;;24.36;42.27;100737.03;5006813;28;20053;-44
2021/12/29 04:46:55;;;;;;;218.68;150.38;;;;;;;24.43;42.38;100744.94;5006707;28;20141;-44
2021/12/29 04:49:27;;;;;;;224.60;153.07;;;;;;;24.47;41.99;100730.09;5007155;28;20033;-44
2021/12/29 04:52:03;;;;;;;232.00;161.23;;;;;;;24.40;42.25;100741.44;5006734;28;20030;-43
2021/12/29 04:54:34;;;;;;;227.68;160.98;;;;;;;24.46;42.09;100751.09;5006787;28;20040;-43
2021/12/29 04:57:03;;;;;;;229.85;162.98;;;;;;;24.42;42.07;100747.53;5025155;28;20084;-44
2021/12/29 04:59:31;;;;;;;234.02;162.65;;;;;;;24.47;41.96;100777.31;5026245;28;20442;-43
2021/12/29 05:02:00;;;;;;;228.00;158.52;;;;;;;24.40;42.58;100781.63;5026084;28;20060;-43
2021/12/29 05:04:33;;;;;;;236.75;164.35;;;;;;;24.39;42.85;100784.25;5026070;28;20029;-44
2021/12/29 05:09:51;;;;;;;240.68;168.43;;;;;;;24.35;42.39;100777.22;5025769;28;20064;-43
2021/12/29 05:12:21;;;;;;;246.07;170.95;;;;;;;24.43;42.43;100779.03;5026003;28;20537;-43
2021/12/29 05:14:50;;;;;;;245.90;170.25;;;;;;;24.34;42.67;100783.31;5026223;28;20029;-42
2021/12/29 05:17:19;;;;;;;239.20;169.75;;;;;;;24.42;42.30;100777.28;5025779;28;20032;-43
2021/12/29 05:19:50;;;;;;;251.90;172.48;;;;;;;24.39;42.59;100789.50;5025692;28;20025;-44
2021/12/29 05:22:18;;;;;;;251.57;173.65;;;;;;;24.44;42.28;100787.75;5025883;28;20037;-42
2021/12/29 05:24:54;;;;;;;241.85;168.55;;;;;;;24.41;42.24;100786.00;5025709;28;20027;-43
2021/12/29 05:27:21;;;;;;;256.40;176.45;;;;;;;24.50;42.52;100777.34;5026330;28;20567;-43
2021/12/29 05:29:50;;;;;;;247.23;172.80;;;;;;;24.41;42.46;100772.91;5025673;28;20470;-43
2021/12/29 05:32:18;;;;;;;251.07;174.63;;;;;;;24.39;42.43;100777.25;5025553;28;20056;-42
2021/12/29 05:34:48;;;;;;;247.02;172.02;;;;;;;24.36;42.71;100779.84;5024454;28;20052;-43
2021/12/29 05:37:17;;;;;;;260.02;179.43;;;;;;;24.35;42.60;100783.31;5025225;28;20033;-43
2021/12/29 05:39:46;;;;;;;251.98;177.93;;;;;;;24.36;42.60;100785.06;5024138;28;20025;-43
2021/12/29 05:42:15;;;;;;;242.88;174.10;;;;;;;24.34;42.80;100788.56;5024110;28;20378;-43
2021/12/29 05:44:43;;;;;;;243.18;167.48;;;;;;;24.36;42.39;100798.19;5025698;28;20041;-44
2021/12/29 05:47:12;;;;;;;244.23;171.30;;;;;;;24.37;42.86;100785.97;5025545;28;20498;-44
2021/12/29 05:49:44;;;;;;;242.65;166.23;;;;;;;24.38;42.56;100779.88;5025416;28;20077;-43
2021/12/29 05:52:16;;;;;;;234.52;156.93;;;;;;;24.45;42.14;100789.53;5024988;28;20526;-43
2021/12/29 05:54:45;;;;;;;239.93;163.57;;;;;;;24.43;42.30;100792.13;5025190;28;20029;-44
2021/12/29 05:57:14;;;;;;;237.60;166.80;;;;;;;24.40;42.29;100779.00;5008036;28;20052;-43
2021/12/29 05:59:42;;;;;;;232.85;164.35;;;;;;;24.44;42.44;100787.75;5025014;28;20425;-43
2021/12/29 06:02:11;;;;;;;246.00;170.27;;;;;;;24.35;42.77;100790.31;5025129;28;20038;-44
2021/12/29 06:04:39;;;;;;;246.50;170.13;;;;;;;24.33;42.44;100779.81;5025223;28;20029;-44
2021/12/29 06:07:07;;;;;;;260.15;181.15;;;;;;;24.43;42.76;100801.72;5024828;28;20113;-44
2021/12/29 06:09:35;;;;;;;253.20;177.68;;;;;;;24.38;42.40;100798.22;5025336;28;20035;-44
2021/12/29 06:12:04;;;;;;;254.27;176.85;;;;;;;24.39;42.58;100795.59;5025021;28;20461;-44
2021/12/29 06:14:33;;;;;;;237.52;165.43;;;;;;;24.40;42.31;100797.34;5025094;28;20037;-44
2021/12/29 06:17:02;;;;;;;254.20;176.32;;;;;;;24.34;42.66;100789.41;5025009;28;20127;-44
2021/12/29 06:19:32;;;;;;;248.60;172.95;;;;;;;24.28;42.61;100802.50;5024718;28;20025;-43
2021/12/29 06:22:03;;;;;;;257.95;174.88;;;;;;;24.30;42.99;100795.53;5023500;28;20490;-44
2021/12/29 06:24:32;;;;;;;243.90;169.02;;;;;;;24.25;43.16;100805.09;5024876;28;20489;-43
2021/12/29 06:27:05;;;;;;;245.82;171.75;;;;;;;24.35;42.48;100798.19;5023349;28;20028;-44
2021/12/29 06:29:37;;;;;;;253.27;177.73;;;;;;;24.30;42.93;100785.03;5024952;28;20030;-43
2021/12/29 06:32:06;;;;;;;240.45;176.70;;;;;;;24.27;43.08;100791.13;5024805;28;20562;-43
2021/12/29 06:34:36;;;;;;;265.63;188.10;;;;;;;24.35;43.03;100787.69;5024788;28;20037;-44
2021/12/29 06:37:09;;;;;;;252.93;174.65;;;;;;;24.38;42.84;100788.59;5024751;28;20025;-44
2021/12/29 06:39:39;;;;;;;261.33;183.65;;;;;;;24.40;42.93;100788.63;5024481;28;20103;-43
2021/12/29 06:42:09;;;;;;;251.40;177.75;;;;;;;24.35;42.41;100788.56;5024427;28;20029;-43
2021/12/29 06:44:38;;;;;;;234.35;167.80;;;;;;;24.30;43.05;100784.16;5004645;28;20041;-43
2021/12/29 06:47:07;;;;;;;236.80;160.90;;;;;;;24.31;42.78;100794.66;5004409;28;20069;-43
2021/12/29 06:49:36;;;;;;;247.05;170.88;;;;;;;24.34;42.74;100791.19;5004911;28;20040;-43
2021/12/29 06:52:05;;;;;;;237.75;162.02;;;;;;;24.34;42.55;100785.94;5004736;28;20029;-43
2021/12/29 06:54:33;;;;;;;237.70;162.50;;;;;;;24.30;42.78;100792.91;5003235;28;20050;-43
2021/12/29 06:57:01;;;;;;;239.57;168.07;;;;;;;24.30;42.77;100810.38;5004385;28;20414;-44
2021/12/29 06:59:30;;;;;;;235.77;159.25;;;;;;;24.26;43.09;100801.59;5004625;28;20064;-43
2021/12/29 07:01:58;;;;;;;225.50;158.32;;;;;;;24.34;42.69;100820.03;5004137;28;20056;-44
2021/12/29 07:04:27;;;;;;;229.25;165.27;;;;;;;24.28;42.56;100808.59;5019317;28;20026;-44
2021/12/29 07:06:56;;;;;;;238.07;167.52;;;;;;;24.21;43.00;100811.16;5023716;28;20040;-43
2021/12/29 07:09:25;;;;;;;243.02;168.60;;;;;;;24.27;43.10;100813.84;5023981;28;20025;-43
2021/12/29 07:11:53;;;;;;;233.85;159.35;;;;;;;24.21;43.28;100804.19;5017650;28;20417;-43
2021/12/29 07:14:21;;;;;;;226.95;158.70;;;;;;;24.24;42.97;100812.06;5020408;28;20033;-43
2021/12/29 07:16:51;;;;;;;242.90;170.27;;;;;;;24.24;43.31;100824.28;5023913;28;20025;-43
2021/12/29 07:19:20;;;;;;;245.95;170.95;;;;;;;24.32;43.04;100832.22;5023544;28;20033;-43
2021/12/29 07:21:49;;;;;;;230.77;161.18;;;;;;;24.23;43.33;100826.06;5023787;28;20029;-43
2021/12/29 07:24:18;;;;;;;224.52;159.18;;;;;;;24.38;42.72;100830.53;5022664;28;20083;-43
2021/12/29 07:26:46;;;;;;;234.52;163.32;;;;;;;24.36;42.64;100834.88;5023714;28;20072;-42
2021/12/29 07:29:15;;;;;;;238.55;164.20;;;;;;;24.37;42.83;100833.16;5023700;28;20140;-44
2021/12/29 07:31:44;;;;;;;227.48;157.77;;;;;;;24.41;42.63;100841.06;5023184;28;20116;-44
2021/12/29 07:34:12;;;;;;;244.73;167.45;;;;;;;24.28;43.17;100841.81;5023900;28;20475;-43
2021/12/29 07:36:41;;;;;;;235.18;168.90;;;;;;;24.21;43.00;100843.50;5022395;28;20033;-43
2021/12/29 07:39:11;;;;;;;245.43;171.65;;;;;;;24.22;43.35;100849.59;5023521;28;20040;-45
2021/12/29 07:41:40;;;;;;;246.05;176.48;;;;;;;24.11;43.48;100849.50;5023308;28;20044;-43
2021/12/29 07:44:12;;;;;;;237.70;167.75;;;;;;;24.17;43.53;100856.53;5019622;28;20112;-44
2021/12/29 07:46:43;;;;;;;230.13;161.93;;;;;;;24.19;43.18;100853.09;5014843;28;20060;-43
2021/12/29 07:49:12;;;;;;;220.75;154.45;;;;;;;24.29;43.26;100851.44;5013589;28;20280;-44
2021/12/29 07:51:41;;;;;;;234.18;158.93;;;;;;;24.24;43.40;100863.63;5023402;28;20096;-43
2021/12/29 07:54:10;;;;;;;229.93;159.73;;;;;;;24.30;43.03;100852.31;5014420;28;20026;-43
2021/12/29 07:56:41;;;;;;;241.35;155.65;;;;;;;24.34;43.00;100860.22;5009211;28;20022;-44
2021/12/29 07:59:12;;;;;;;227.63;157.75;;;;;;;24.34;43.03;100859.34;5025073;28;20029;-44
2021/12/29 08:01:43;;;;;;;220.73;156.95;;;;;;;24.39;43.04;100860.28;5025777;28;20060;-44
2021/12/29 08:04:14;;;;;;;227.93;156.70;;;;;;;24.39;43.31;100871.63;5016190;28;20546;-43
2021/12/29 08:06:43;;;;;;;220.90;156.10;;;;;;;24.44;42.78;100871.66;5012913;28;20030;-44
2021/12/29 08:09:12;;;;;;;226.00;160.45;;;;;;;24.34;43.14;100886.44;5016349;28;20390;-44
2021/12/29 08:11:41;;;;;;;231.55;157.60;;;;;;;24.39;43.04;100892.59;5021583;28;20033;-44
2021/12/29 08:14:10;;;;;;;225.88;160.20;;;;;;;24.38;43.02;100895.22;5020589;28;20135;-44
2021/12/29 08:16:39;;;;;;;233.23;165.90;;;;;;;24.37;43.27;100904.81;5013701;28;20036;-44
2021/12/29 08:19:08;;;;;;;237.70;165.05;;;;;;;24.44;42.98;100900.50;5012501;28;20026;-44
2021/12/29 08:21:37;;;;;;;236.52;164.40;;;;;;;24.38;43.39;100901.34;5010032;28;20090;-44
2021/12/29 08:24:05;;;;;;;237.45;167.18;;;;;;;24.35;43.39;100889.94;5020192;28;20188;-44
2021/12/29 08:26:34;;;;;;;243.90;166.90;;;;;;;24.44;43.20;100895.25;5027405;28;20036;-44
2021/12/29 08:29:03;;;;;;;249.73;172.57;;;;;;;24.47;43.01;100897.94;5025608;28;20043;-43
2021/12/29 08:31:33;;;;;;;240.68;163.60;;;;;;;24.46;42.95;100897.94;5010852;28;20036;-43
2021/12/29 08:34:01;;;;;;;250.07;169.27;;;;;;;24.40;43.41;100907.47;5027109;28;20032;-44
2021/12/29 08:36:30;;;;;;;245.68;168.90;;;;;;;24.40;43.43;100910.09;5020554;28;20041;-44
2021/12/29 08:38:59;;;;;;;239.10;165.15;;;;;;;24.47;43.29;100918.91;5006244;28;20034;-44
2021/12/29 08:41:27;;;;;;;242.93;167.00;;;;;;;24.43;42.84;100922.34;5006779;28;20615;-44
2021/12/29 08:43:56;;;;;;;243.38;166.32;;;;;;;24.39;43.27;100926.69;5007083;28;20601;-44
2021/12/29 08:46:25;;;;;;;238.90;164.10;;;;;;;24.45;43.09;100931.13;5007126;28;20037;-43
2021/12/29 08:48:54;;;;;;;249.55;175.73;;;;;;;24.41;43.19;100929.31;5007123;28;20026;-44
2021/12/29 08:51:23;;;;;;;233.73;164.32;;;;;;;24.47;43.17;100942.50;5021891;28;20482;-44
2021/12/29 08:53:52;;;;;;;239.27;164.93;;;;;;;24.41;43.09;100948.56;5008009;28;20091;-43
2021/12/29 08:56:21;;;;;;;240.07;164.68;;;;;;;24.40;42.98;100944.19;5007039;28;20033;-43
2021/12/29 08:58:50;;;;;;;240.27;162.82;;;;;;;24.48;43.08;100940.78;5006301;28;20063;-43
2021/12/29 09:01:18;;;;;;;240.57;168.43;;;;;;;24.40;43.14;100928.44;5006281;28;20057;-43
2021/12/29 09:03:48;;;;;;;249.48;170.77;;;;;;;24.37;43.21;100941.53;5006276;28;20068;-44
2021/12/29 09:06:17;;;;;;;230.25;159.40;;;;;;;24.41;43.43;100939.81;5007459;28;20038;-44
2021/12/29 09:08:46;;;;;;;229.77;158.52;;;;;;;24.43;42.88;100944.22;5016702;28;20029;-43
2021/12/29 09:11:15;;;;;;;239.00;160.05;;;;;;;24.36;43.27;100945.00;5016669;28;20112;-43
2021/12/29 09:13:44;;;;;;;236.70;164.38;;;;;;;24.37;43.50;100957.25;5012725;28;20532;-43
2021/12/29 09:16:13;;;;;;;242.52;168.25;;;;;;;24.45;42.82;100951.22;5020669;28;20041;-43
2021/12/29 09:18:42;;;;;;;242.82;169.70;;;;;;;24.44;43.19;100955.56;5020044;28;20112;-43
2021/12/29 09:21:15;;;;;;;239.70;165.73;;;;;;;24.49;43.12;100960.91;5013609;28;20041;-43
2021/12/29 09:23:44;;;;;;;244.63;168.75;;;;;;;24.47;43.14;100970.47;5010516;28;20099;-44
2021/12/29 09:26:15;;;;;;;243.02;169.25;;;;;;;24.43;43.41;100969.53;5021076;28;20486;-43
2021/12/29 09:28:45;;;;;;;247.80;173.50;;;;;;;24.42;43.45;100983.50;5019892;28;20651;-43
2021/12/29 09:31:14;;;;;;;245.65;176.18;;;;;;;24.47;43.33;100987.09;5011654;28;20049;-43
2021/12/29 09:33:43;;;;;;;248.68;172.68;;;;;;;24.49;43.07;100987.13;5006264;28;20030;-43
2021/12/29 09:36:12;;;;;;;232.82;164.10;;;;;;;24.51;43.01;100994.13;5018133;28;20035;-43
2021/12/29 09:38:40;;;;;;;241.48;169.93;;;;;;;24.50;43.25;100986.22;5010141;28;20038;-43
2021/12/29 09:41:11;;;;;;;240.93;170.88;;;;;;;24.44;43.40;100992.28;5015781;28;20037;-43
2021/12/29 09:43:41;;;;;;;236.93;163.23;;;;;;;24.48;43.03;100967.88;5020141;28;20034;-43
2021/12/29 09:46:10;;;;;;;230.38;162.75;;;;;;;24.49;42.90;100972.25;5015789;28;20609;-43
2021/12/29 09:48:39;;;;;;;236.98;160.88;;;;;;;24.40;42.92;100983.50;5009990;28;20041;-43
2021/12/29 09:51:11;;;;;;;238.70;163.35;;;;;;;24.47;42.92;100981.84;5013803;28;20661;-44
2021/12/29 09:53:40;;;;;;;240.60;166.32;;;;;;;24.49;43.06;100979.25;5018616;28;20383;-43
2021/12/29 09:56:10;;;;;;;235.88;163.35;;;;;;;24.58;43.05;100981.97;5017993;28;20537;-43
2021/12/29 09:58:40;;;;;;;235.63;160.82;;;;;;;24.45;43.39;100990.56;5023127;28;20429;-43
2021/12/29 10:01:10;;;;;;;243.10;162.18;;;;;;;24.42;43.00;100994.91;5015534;28;20054;-42
2021/12/29 10:03:39;;;;;;;236.07;163.70;;;;;;;24.46;43.30;100997.56;5012838;28;20493;-43
2021/12/29 10:06:10;;;;;;;234.95;164.18;;;;;;;24.52;43.24;100995.88;5017040;28;20034;-44
2021/12/29 10:08:41;;;;;;;243.40;163.90;;;;;;;24.49;43.03;101011.59;5025111;28;20033;-45
2021/12/29 10:11:18;;;;;;;227.93;159.02;;;;;;;24.45;42.96;100999.28;5019509;28;20065;-43
2021/12/29 10:13:49;;;;;;;226.90;159.32;;;;;;;24.53;42.57;101010.75;5013465;28;20017;-43
2021/12/29 10:16:21;;;;;;;225.15;150.80;;;;;;;24.54;42.60;101020.41;5015649;28;20026;-43
2021/12/29 10:18:54;;;;;;;219.82;158.05;;;;;;;24.53;42.61;101015.13;5016812;28;20402;-43
2021/12/29 10:21:26;;;;;;;229.65;159.27;;;;;;;24.50;42.69;101023.84;5015429;28;20497;-43
2021/12/29 10:23:56;;;;;;;234.98;163.75;;;;;;;24.51;42.86;101035.19;5018253;28;20090;-43
2021/12/29 10:26:27;;;;;;;227.10;155.00;;;;;;;24.57;42.60;101030.91;5020942;28;20037;-44
2021/12/29 10:29:01;;;;;;;218.15;149.02;;;;;;;24.57;42.57;101030.03;5005761;28;20418;-43
2021/12/29 10:31:32;;;;;;;218.98;145.80;;;;;;;24.59;42.51;101038.81;5006276;28;20029;-44
2021/12/29 10:34:03;;;;;;;206.52;140.43;;;;;;;24.62;42.57;101032.69;5008102;28;20095;-43
2021/12/29 10:36:36;;;;;;;215.98;145.60;;;;;;;24.59;42.37;101038.81;5015326;28;20079;-43
2021/12/29 10:39:09;;;;;;;212.63;143.82;;;;;;;24.58;42.56;101042.28;5015408;28;20513;-45
2021/12/29 10:41:58;;;;;;;219.38;149.38;;;;;;;24.66;42.56;101040.63;5010835;28;20347;-42
2021/12/29 10:44:32;;;;;;;212.10;142.38;;;;;;;24.63;42.57;101042.31;5012167;28;20088;-43
2021/12/29 10:47:02;;;;;;;216.27;147.82;;;;;;;24.61;42.48;101039.69;5019346;28;20490;-44
2021/12/29 10:49:32;;;;;;;224.15;149.38;;;;;;;24.57;42.35;101041.38;5022444;28;20041;-43
2021/12/29 10:52:01;;;;;;;227.35;151.75;;;;;;;24.58;42.62;101031.78;5016670;28;20104;-43
2021/12/29 10:54:30;;;;;;;226.73;149.32;;;;;;;24.55;42.57;101052.72;5010101;28;20037;-43
2021/12/29 10:57:02;;;;;;;217.68;152.10;;;;;;;24.55;42.79;101057.97;5009493;28;20040;-44
2021/12/29 10:59:34;;;;;;;216.20;147.20;;;;;;;24.59;42.39;101059.78;5006195;28;20164;-43
2021/12/29 11:02:04;;;;;;;233.48;158.00;;;;;;;24.55;42.86;101052.72;4999761;28;20553;-43
2021/12/29 11:04:33;;;;;;;223.20;153.13;;;;;;;24.54;43.09;101051.88;5014522;28;20535;-43
2021/12/29 11:07:01;;;;;;;227.98;154.82;;;;;;;24.62;42.47;101059.81;5012300;28;20036;-43
2021/12/29 11:09:35;;;;;;;228.35;155.18;;;;;;;24.51;43.15;101045.69;5019053;28;20022;-43
2021/12/29 11:12:12;;;;;;;230.93;159.68;;;;;;;24.53;42.89;101046.59;5014918;28;20033;-43